sensor_id;sensor_type;location;lat;lon;timestamp;temperature;humidity
6556;DHT22;3311;48.32423000;14.29074500;2023-07-09T00:00:48;24.30;56.80
6556;DHT22;3311;48.32423000;14.29074500;2023-07-09T00:03:17;24.30;57.00
6556;DHT22;3311;48.32423000;14.29074500;2023-07-09T00:05:48;24.20;56.90
6556;DHT22;3311;48.32423000;14.29074500;2023-07-09T00:08:25;24.20;56.80
6556;DHT22;3311;48.32423000;14.29074500;2023-07-09T00:10:53;24.20;56.70
6556;DHT22;3311;48.32423000;14.29074500;2023-07-09T00:13:22;24.20;56.70
6556;DHT22;3311;48.32423000;14.29074500;2023-07-09T00:15:53;24.20;56.80
6556;DHT22;3311;48.32423000;14.29074500;2023-07-09T00:18:21;24.20;56.90
6556;DHT22;3311;48.32423000;14.29074500;2023-07-09T00:20:50;24.20;57.10
6556;DHT22;3311;48.32423000;14.29074500;2023-07-09T00:23:17;24.10;57.00
6556;DHT22;3311;48.32423000;14.29074500;2023-07-09T00:25:46;24.20;57.00
6556;DHT22;3311;48.32423000;14.29074500;2023-07-09T00:28:15;24.20;57.10
6556;DHT22;3311;48.32423000;14.29074500;2023-07-09T00:30:44;24.20;57.10
6556;DHT22;3311;48.32423000;14.29074500;2023-07-09T00:33:17;24.20;57.10
6556;DHT22;3311;48.32423000;14.29074500;2023-07-09T00:35:47;24.20;57.10
6556;DHT22;3311;48.32423000;14.29074500;2023-07-09T00:38:20;24.20;57.10
6556;DHT22;3311;48.32423000;14.29074500;2023-07-09T00:41:00;24.20;57.00
6556;DHT22;3311;48.32423000;14.29074500;2023-07-09T00:43:31;24.20;57.60
6556;DHT22;3311;48.32423000;14.29074500;2023-07-09T00:49:03;24.20;57.20
6556;DHT22;3311;48.32423000;14.29074500;2023-07-09T00:51:33;24.10;57.20
6556;DHT22;3311;48.32423000;14.29074500;2023-07-09T00:54:19;24.10;57.10
6556;DHT22;3311;48.32423000;14.29074500;2023-07-09T00:56:51;24.10;57.10
6556;DHT22;3311;48.32423000;14.29074500;2023-07-09T00:59:23;24.10;57.20
6556;DHT22;3311;48.32423000;14.29074500;2023-07-09T01:01:53;24.10;57.20
6556;DHT22;3311;48.32423000;14.29074500;2023-07-09T01:04:25;24.10;57.30
6556;DHT22;3311;48.32423000;14.29074500;2023-07-09T01:06:53;24.10;57.40
6556;DHT22;3311;48.32423000;14.29074500;2023-07-09T01:09:22;24.10;57.50
6556;DHT22;3311;48.32423000;14.29074500;2023-07-09T01:11:50;24.00;57.00
6556;DHT22;3311;48.32423000;14.29074500;2023-07-09T01:14:19;23.90;56.80
6556;DHT22;3311;48.32423000;14.29074500;2023-07-09T01:16:50;23.90;57.00
6556;DHT22;3311;48.32423000;14.29074500;2023-07-09T01:19:26;23.90;57.60
6556;DHT22;3311;48.32423000;14.29074500;2023-07-09T01:21:58;23.90;57.80
6556;DHT22;3311;48.32423000;14.29074500;2023-07-09T01:24:51;23.90;57.90
6556;DHT22;3311;48.32423000;14.29074500;2023-07-09T01:27:21;23.90;57.60
6556;DHT22;3311;48.32423000;14.29074500;2023-07-09T01:29:49;23.90;57.40
6556;DHT22;3311;48.32423000;14.29074500;2023-07-09T01:32:18;24.00;57.20
6556;DHT22;3311;48.32423000;14.29074500;2023-07-09T01:34:46;24.00;57.20
6556;DHT22;3311;48.32423000;14.29074500;2023-07-09T01:37:17;24.00;57.30
6556;DHT22;3311;48.32423000;14.29074500;2023-07-09T01:39:47;23.90;57.50
6556;DHT22;3311;48.32423000;14.29074500;2023-07-09T01:42:15;23.90;57.60
6556;DHT22;3311;48.32423000;14.29074500;2023-07-09T01:44:43;24.00;57.90
6556;DHT22;3311;48.32423000;14.29074500;2023-07-09T01:47:12;24.00;58.10
6556;DHT22;3311;48.32423000;14.29074500;2023-07-09T01:49:41;24.00;57.50
6556;DHT22;3311;48.32423000;14.29074500;2023-07-09T01:52:13;24.00;57.80
6556;DHT22;3311;48.32423000;14.29074500;2023-07-09T01:54:43;24.00;57.80
6556;DHT22;3311;48.32423000;14.29074500;2023-07-09T01:57:18;23.90;57.80
6556;DHT22;3311;48.32423000;14.29074500;2023-07-09T01:59:50;23.90;58.10
6556;DHT22;3311;48.32423000;14.29074500;2023-07-09T02:02:19;23.90;58.00
6556;DHT22;3311;48.32423000;14.29074500;2023-07-09T02:04:47;23.90;58.30
6556;DHT22;3311;48.32423000;14.29074500;2023-07-09T02:07:15;23.90;58.40
6556;DHT22;3311;48.32423000;14.29074500;2023-07-09T02:09:45;23.90;58.40
6556;DHT22;3311;48.32423000;14.29074500;2023-07-09T02:12:14;23.90;58.30
6556;DHT22;3311;48.32423000;14.29074500;2023-07-09T02:14:42;23.90;58.40
6556;DHT22;3311;48.32423000;14.29074500;2023-07-09T02:17:12;24.00;58.40
6556;DHT22;3311;48.32423000;14.29074500;2023-07-09T02:19:40;23.90;58.20
6556;DHT22;3311;48.32423000;14.29074500;2023-07-09T02:22:08;23.90;58.20
6556;DHT22;3311;48.32423000;14.29074500;2023-07-09T02:24:36;23.90;58.20
6556;DHT22;3311;48.32423000;14.29074500;2023-07-09T02:27:07;23.90;58.30
6556;DHT22;3311;48.32423000;14.29074500;2023-07-09T02:29:37;23.90;58.50
6556;DHT22;3311;48.32423000;14.29074500;2023-07-09T02:32:05;23.90;58.30
6556;DHT22;3311;48.32423000;14.29074500;2023-07-09T02:34:33;23.90;58.30
6556;DHT22;3311;48.32423000;14.29074500;2023-07-09T02:37:01;23.90;58.60
6556;DHT22;3311;48.32423000;14.29074500;2023-07-09T02:39:29;23.80;58.50
6556;DHT22;3311;48.32423000;14.29074500;2023-07-09T02:41:57;23.80;58.60
6556;DHT22;3311;48.32423000;14.29074500;2023-07-09T02:44:26;23.90;58.70
6556;DHT22;3311;48.32423000;14.29074500;2023-07-09T02:46:53;23.90;59.00
6556;DHT22;3311;48.32423000;14.29074500;2023-07-09T02:49:22;24.00;59.10
6556;DHT22;3311;48.32423000;14.29074500;2023-07-09T02:51:49;23.80;58.70
6556;DHT22;3311;48.32423000;14.29074500;2023-07-09T02:54:16;23.90;58.60
6556;DHT22;3311;48.32423000;14.29074500;2023-07-09T02:56:44;23.90;58.40
6556;DHT22;3311;48.32423000;14.29074500;2023-07-09T02:59:12;23.90;58.30
6556;DHT22;3311;48.32423000;14.29074500;2023-07-09T03:01:45;23.80;58.70
6556;DHT22;3311;48.32423000;14.29074500;2023-07-09T03:04:13;23.80;59.10
6556;DHT22;3311;48.32423000;14.29074500;2023-07-09T03:06:40;23.70;59.30
6556;DHT22;3311;48.32423000;14.29074500;2023-07-09T03:09:10;23.70;59.10
6556;DHT22;3311;48.32423000;14.29074500;2023-07-09T03:11:37;23.70;59.10
6556;DHT22;3311;48.32423000;14.29074500;2023-07-09T03:14:05;23.80;59.20
6556;DHT22;3311;48.32423000;14.29074500;2023-07-09T03:16:34;23.80;59.10
6556;DHT22;3311;48.32423000;14.29074500;2023-07-09T03:19:03;23.80;59.10
6556;DHT22;3311;48.32423000;14.29074500;2023-07-09T03:21:32;23.80;59.10
6556;DHT22;3311;48.32423000;14.29074500;2023-07-09T03:23:59;23.80;59.10
6556;DHT22;3311;48.32423000;14.29074500;2023-07-09T03:26:27;23.80;59.10
6556;DHT22;3311;48.32423000;14.29074500;2023-07-09T03:28:54;23.70;59.20
6556;DHT22;3311;48.32423000;14.29074500;2023-07-09T03:31:24;23.70;59.80
6556;DHT22;3311;48.32423000;14.29074500;2023-07-09T03:33:52;23.60;59.40
6556;DHT22;3311;48.32423000;14.29074500;2023-07-09T03:36:21;23.60;59.50
6556;DHT22;3311;48.32423000;14.29074500;2023-07-09T03:38:49;23.70;59.50
6556;DHT22;3311;48.32423000;14.29074500;2023-07-09T03:41:16;23.80;59.30
6556;DHT22;3311;48.32423000;14.29074500;2023-07-09T03:43:43;23.70;59.40
6556;DHT22;3311;48.32423000;14.29074500;2023-07-09T03:46:11;23.70;59.50
6556;DHT22;3311;48.32423000;14.29074500;2023-07-09T03:48:38;23.70;59.50
6556;DHT22;3311;48.32423000;14.29074500;2023-07-09T03:51:06;23.60;59.60
6556;DHT22;3311;48.32423000;14.29074500;2023-07-09T03:53:35;23.70;59.60
6556;DHT22;3311;48.32423000;14.29074500;2023-07-09T03:56:02;23.60;59.70
6556;DHT22;3311;48.32423000;14.29074500;2023-07-09T03:58:29;23.60;59.60
6556;DHT22;3311;48.32423000;14.29074500;2023-07-09T04:00:57;23.50;60.20
6556;DHT22;3311;48.32423000;14.29074500;2023-07-09T04:03:24;23.00;61.40
6556;DHT22;3311;48.32423000;14.29074500;2023-07-09T04:05:52;23.00;62.00
6556;DHT22;3311;48.32423000;14.29074500;2023-07-09T04:08:19;23.20;62.30
6556;DHT22;3311;48.32423000;14.29074500;2023-07-09T04:10:47;23.20;61.60
6556;DHT22;3311;48.32423000;14.29074500;2023-07-09T04:13:15;23.40;61.10
6556;DHT22;3311;48.32423000;14.29074500;2023-07-09T04:15:43;23.40;60.90
6556;DHT22;3311;48.32423000;14.29074500;2023-07-09T04:18:11;23.50;61.10
6556;DHT22;3311;48.32423000;14.29074500;2023-07-09T04:20:38;23.60;60.80
6556;DHT22;3311;48.32423000;14.29074500;2023-07-09T04:23:06;23.60;60.80
6556;DHT22;3311;48.32423000;14.29074500;2023-07-09T04:25:33;23.70;61.10
6556;DHT22;3311;48.32423000;14.29074500;2023-07-09T04:28:02;23.70;61.20
6556;DHT22;3311;48.32423000;14.29074500;2023-07-09T04:30:29;23.70;61.20
6556;DHT22;3311;48.32423000;14.29074500;2023-07-09T04:33:01;23.80;61.10
6556;DHT22;3311;48.32423000;14.29074500;2023-07-09T04:35:29;23.80;61.00
6556;DHT22;3311;48.32423000;14.29074500;2023-07-09T04:38:02;23.90;61.10
6556;DHT22;3311;48.32423000;14.29074500;2023-07-09T04:40:29;24.00;60.60
6556;DHT22;3311;48.32423000;14.29074500;2023-07-09T04:42:56;24.10;60.10
6556;DHT22;3311;48.32423000;14.29074500;2023-07-09T04:45:25;24.20;60.60
6556;DHT22;3311;48.32423000;14.29074500;2023-07-09T04:47:52;24.30;60.10
6556;DHT22;3311;48.32423000;14.29074500;2023-07-09T04:50:19;24.40;59.90
6556;DHT22;3311;48.32423000;14.29074500;2023-07-09T04:52:47;24.40;59.40
6556;DHT22;3311;48.32423000;14.29074500;2023-07-09T04:55:14;24.60;59.30
6556;DHT22;3311;48.32423000;14.29074500;2023-07-09T04:57:45;24.70;59.10
6556;DHT22;3311;48.32423000;14.29074500;2023-07-09T05:00:13;24.70;58.90
6556;DHT22;3311;48.32423000;14.29074500;2023-07-09T05:02:42;24.80;59.00
6556;DHT22;3311;48.32423000;14.29074500;2023-07-09T05:05:10;24.80;58.70
6556;DHT22;3311;48.32423000;14.29074500;2023-07-09T05:07:38;24.90;58.20
6556;DHT22;3311;48.32423000;14.29074500;2023-07-09T05:10:06;24.90;57.80
6556;DHT22;3311;48.32423000;14.29074500;2023-07-09T05:12:33;25.00;57.70
6556;DHT22;3311;48.32423000;14.29074500;2023-07-09T05:15:01;25.00;57.50
6556;DHT22;3311;48.32423000;14.29074500;2023-07-09T05:17:28;25.00;57.60
6556;DHT22;3311;48.32423000;14.29074500;2023-07-09T05:19:56;25.10;57.30
6556;DHT22;3311;48.32423000;14.29074500;2023-07-09T05:22:24;25.10;57.10
6556;DHT22;3311;48.32423000;14.29074500;2023-07-09T05:24:51;25.20;57.10
6556;DHT22;3311;48.32423000;14.29074500;2023-07-09T05:27:18;25.20;57.00
6556;DHT22;3311;48.32423000;14.29074500;2023-07-09T05:29:45;25.20;56.90
6556;DHT22;3311;48.32423000;14.29074500;2023-07-09T05:32:13;25.20;56.80
6556;DHT22;3311;48.32423000;14.29074500;2023-07-09T05:34:40;25.30;56.80
6556;DHT22;3311;48.32423000;14.29074500;2023-07-09T05:37:09;25.30;56.70
6556;DHT22;3311;48.32423000;14.29074500;2023-07-09T05:39:36;25.40;56.70
6556;DHT22;3311;48.32423000;14.29074500;2023-07-09T05:42:05;25.40;56.60
6556;DHT22;3311;48.32423000;14.29074500;2023-07-09T05:44:32;25.40;56.50
6556;DHT22;3311;48.32423000;14.29074500;2023-07-09T05:46:59;25.50;56.50
6556;DHT22;3311;48.32423000;14.29074500;2023-07-09T05:49:27;25.50;56.40
6556;DHT22;3311;48.32423000;14.29074500;2023-07-09T05:51:54;25.50;56.30
6556;DHT22;3311;48.32423000;14.29074500;2023-07-09T05:54:23;25.50;56.20
6556;DHT22;3311;48.32423000;14.29074500;2023-07-09T05:56:50;25.50;56.20
6556;DHT22;3311;48.32423000;14.29074500;2023-07-09T05:59:17;25.60;56.10
6556;DHT22;3311;48.32423000;14.29074500;2023-07-09T06:01:44;25.60;56.60
6556;DHT22;3311;48.32423000;14.29074500;2023-07-09T06:04:12;25.60;56.00
6556;DHT22;3311;48.32423000;14.29074500;2023-07-09T06:06:40;25.70;56.00
6556;DHT22;3311;48.32423000;14.29074500;2023-07-09T06:09:07;25.70;55.90
6556;DHT22;3311;48.32423000;14.29074500;2023-07-09T06:11:37;25.70;55.90
6556;DHT22;3311;48.32423000;14.29074500;2023-07-09T06:14:04;25.80;55.80
6556;DHT22;3311;48.32423000;14.29074500;2023-07-09T06:16:31;25.80;55.80
6556;DHT22;3311;48.32423000;14.29074500;2023-07-09T06:18:59;25.80;55.70
6556;DHT22;3311;48.32423000;14.29074500;2023-07-09T06:21:26;25.80;55.70
6556;DHT22;3311;48.32423000;14.29074500;2023-07-09T06:23:53;25.80;55.60
6556;DHT22;3311;48.32423000;14.29074500;2023-07-09T06:26:21;25.90;55.60
6556;DHT22;3311;48.32423000;14.29074500;2023-07-09T06:28:50;25.90;55.60
6556;DHT22;3311;48.32423000;14.29074500;2023-07-09T06:31:18;25.90;55.50
6556;DHT22;3311;48.32423000;14.29074500;2023-07-09T06:33:47;26.00;55.50
6556;DHT22;3311;48.32423000;14.29074500;2023-07-09T06:36:15;26.00;55.50
6556;DHT22;3311;48.32423000;14.29074500;2023-07-09T06:38:42;26.00;55.40
6556;DHT22;3311;48.32423000;14.29074500;2023-07-09T06:41:10;26.00;55.40
6556;DHT22;3311;48.32423000;14.29074500;2023-07-09T06:43:37;26.10;55.40
6556;DHT22;3311;48.32423000;14.29074500;2023-07-09T06:46:10;26.10;55.30
6556;DHT22;3311;48.32423000;14.29074500;2023-07-09T06:48:38;26.10;55.30
6556;DHT22;3311;48.32423000;14.29074500;2023-07-09T06:51:05;26.10;55.30
6556;DHT22;3311;48.32423000;14.29074500;2023-07-09T06:53:32;26.10;55.20
6556;DHT22;3311;48.32423000;14.29074500;2023-07-09T06:56:00;26.20;55.20
6556;DHT22;3311;48.32423000;14.29074500;2023-07-09T06:58:28;26.20;55.20
6556;DHT22;3311;48.32423000;14.29074500;2023-07-09T07:00:57;26.20;55.20
6556;DHT22;3311;48.32423000;14.29074500;2023-07-09T07:03:26;26.20;55.10
6556;DHT22;3311;48.32423000;14.29074500;2023-07-09T07:05:55;26.20;55.10
6556;DHT22;3311;48.32423000;14.29074500;2023-07-09T07:08:25;26.30;55.10
6556;DHT22;3311;48.32423000;14.29074500;2023-07-09T07:10:55;26.30;55.10
6556;DHT22;3311;48.32423000;14.29074500;2023-07-09T07:13:27;26.30;55.60
6556;DHT22;3311;48.32423000;14.29074500;2023-07-09T07:15:55;26.30;55.00
6556;DHT22;3311;48.32423000;14.29074500;2023-07-09T07:18:22;26.30;55.00
6556;DHT22;3311;48.32423000;14.29074500;2023-07-09T07:20:52;26.40;55.00
6556;DHT22;3311;48.32423000;14.29074500;2023-07-09T07:23:20;26.40;55.00
6556;DHT22;3311;48.32423000;14.29074500;2023-07-09T07:25:48;26.40;55.00
6556;DHT22;3311;48.32423000;14.29074500;2023-07-09T07:28:17;26.40;55.00
6556;DHT22;3311;48.32423000;14.29074500;2023-07-09T07:30:46;26.40;55.00
6556;DHT22;3311;48.32423000;14.29074500;2023-07-09T07:33:14;26.40;54.90
6556;DHT22;3311;48.32423000;14.29074500;2023-07-09T07:35:42;26.50;55.00
6556;DHT22;3311;48.32423000;14.29074500;2023-07-09T07:38:11;26.50;55.00
6556;DHT22;3311;48.32423000;14.29074500;2023-07-09T07:40:39;26.50;55.00
6556;DHT22;3311;48.32423000;14.29074500;2023-07-09T07:43:11;26.50;55.00
6556;DHT22;3311;48.32423000;14.29074500;2023-07-09T07:45:40;26.50;55.00
6556;DHT22;3311;48.32423000;14.29074500;2023-07-09T07:48:08;26.50;54.90
6556;DHT22;3311;48.32423000;14.29074500;2023-07-09T07:50:36;26.50;54.90
6556;DHT22;3311;48.32423000;14.29074500;2023-07-09T07:53:04;26.50;54.80
6556;DHT22;3311;48.32423000;14.29074500;2023-07-09T07:55:36;26.60;54.80
6556;DHT22;3311;48.32423000;14.29074500;2023-07-09T07:58:10;26.60;54.70
6556;DHT22;3311;48.32423000;14.29074500;2023-07-09T08:00:39;26.80;54.50
6556;DHT22;3311;48.32423000;14.29074500;2023-07-09T08:03:07;27.00;54.20
6556;DHT22;3311;48.32423000;14.29074500;2023-07-09T08:05:35;27.20;53.80
6556;DHT22;3311;48.32423000;14.29074500;2023-07-09T08:08:02;27.40;53.40
6556;DHT22;3311;48.32423000;14.29074500;2023-07-09T08:10:31;27.70;53.10
6556;DHT22;3311;48.32423000;14.29074500;2023-07-09T08:13:05;28.00;52.70
6556;DHT22;3311;48.32423000;14.29074500;2023-07-09T08:15:33;28.20;52.30
6556;DHT22;3311;48.32423000;14.29074500;2023-07-09T08:18:01;28.50;52.10
6556;DHT22;3311;48.32423000;14.29074500;2023-07-09T08:20:30;28.60;51.70
6556;DHT22;3311;48.32423000;14.29074500;2023-07-09T08:22:59;28.60;51.40
6556;DHT22;3311;48.32423000;14.29074500;2023-07-09T08:25:26;28.50;51.20
6556;DHT22;3311;48.32423000;14.29074500;2023-07-09T08:27:53;28.40;51.10
6556;DHT22;3311;48.32423000;14.29074500;2023-07-09T08:30:22;28.30;50.90
6556;DHT22;3311;48.32423000;14.29074500;2023-07-09T08:32:49;28.30;50.90
6556;DHT22;3311;48.32423000;14.29074500;2023-07-09T08:35:16;28.20;50.90
6556;DHT22;3311;48.32423000;14.29074500;2023-07-09T08:37:47;28.20;51.00
6556;DHT22;3311;48.32423000;14.29074500;2023-07-09T08:40:16;28.20;51.10
6556;DHT22;3311;48.32423000;14.29074500;2023-07-09T08:42:45;28.10;51.30
6556;DHT22;3311;48.32423000;14.29074500;2023-07-09T08:45:26;27.90;51.50
6556;DHT22;3311;48.32423000;14.29074500;2023-07-09T08:48:03;27.70;51.80
6556;DHT22;3311;48.32423000;14.29074500;2023-07-09T08:50:36;27.60;52.20
6556;DHT22;3311;48.32423000;14.29074500;2023-07-09T08:53:13;27.40;52.40
6556;DHT22;3311;48.32423000;14.29074500;2023-07-09T08:55:43;27.30;52.70
6556;DHT22;3311;48.32423000;14.29074500;2023-07-09T08:58:20;27.20;52.90
6556;DHT22;3311;48.32423000;14.29074500;2023-07-09T09:00:54;27.10;53.10
6556;DHT22;3311;48.32423000;14.29074500;2023-07-09T09:03:30;27.00;53.30
6556;DHT22;3311;48.32423000;14.29074500;2023-07-09T09:06:00;27.00;53.50
6556;DHT22;3311;48.32423000;14.29074500;2023-07-09T09:08:36;27.00;53.60
6556;DHT22;3311;48.32423000;14.29074500;2023-07-09T09:11:13;26.90;53.70
6556;DHT22;3311;48.32423000;14.29074500;2023-07-09T09:13:43;26.90;53.80
6556;DHT22;3311;48.32423000;14.29074500;2023-07-09T09:16:17;26.80;53.90
6556;DHT22;3311;48.32423000;14.29074500;2023-07-09T09:18:49;26.80;54.10
6556;DHT22;3311;48.32423000;14.29074500;2023-07-09T09:21:23;26.70;54.00
6556;DHT22;3311;48.32423000;14.29074500;2023-07-09T09:23:54;26.70;54.20
6556;DHT22;3311;48.32423000;14.29074500;2023-07-09T09:26:28;26.70;54.20
6556;DHT22;3311;48.32423000;14.29074500;2023-07-09T09:28:59;26.70;54.30
6556;DHT22;3311;48.32423000;14.29074500;2023-07-09T09:31:29;26.60;54.80
6556;DHT22;3311;48.32423000;14.29074500;2023-07-09T09:33:56;26.60;54.30
6556;DHT22;3311;48.32423000;14.29074500;2023-07-09T09:36:26;26.60;54.40
6556;DHT22;3311;48.32423000;14.29074500;2023-07-09T09:38:54;26.60;54.40
6556;DHT22;3311;48.32423000;14.29074500;2023-07-09T09:41:23;26.60;54.40
6556;DHT22;3311;48.32423000;14.29074500;2023-07-09T09:43:53;26.60;54.40
6556;DHT22;3311;48.32423000;14.29074500;2023-07-09T09:46:22;26.60;54.50
6556;DHT22;3311;48.32423000;14.29074500;2023-07-09T09:48:54;26.60;54.50
6556;DHT22;3311;48.32423000;14.29074500;2023-07-09T09:51:23;26.60;54.50
6556;DHT22;3311;48.32423000;14.29074500;2023-07-09T09:53:52;26.60;54.60
6556;DHT22;3311;48.32423000;14.29074500;2023-07-09T09:56:27;26.50;54.50
6556;DHT22;3311;48.32423000;14.29074500;2023-07-09T09:58:56;26.50;54.60
6556;DHT22;3311;48.32423000;14.29074500;2023-07-09T10:01:27;26.50;54.60
6556;DHT22;3311;48.32423000;14.29074500;2023-07-09T10:03:58;26.50;54.60
6556;DHT22;3311;48.32423000;14.29074500;2023-07-09T10:06:34;26.50;54.60
6556;DHT22;3311;48.32423000;14.29074500;2023-07-09T10:09:10;26.50;54.60
6556;DHT22;3311;48.32423000;14.29074500;2023-07-09T10:11:46;26.50;54.60
6556;DHT22;3311;48.32423000;14.29074500;2023-07-09T10:14:26;26.50;54.60
6556;DHT22;3311;48.32423000;14.29074500;2023-07-09T10:17:03;26.50;54.60
6556;DHT22;3311;48.32423000;14.29074500;2023-07-09T10:19:42;26.50;54.60
6556;DHT22;3311;48.32423000;14.29074500;2023-07-09T10:22:20;26.50;54.60
6556;DHT22;3311;48.32423000;14.29074500;2023-07-09T10:24:56;26.50;54.60
6556;DHT22;3311;48.32423000;14.29074500;2023-07-09T10:27:32;25.50;54.00
6556;DHT22;3311;48.32423000;14.29074500;2023-07-09T10:30:17;26.40;54.60
6556;DHT22;3311;48.32423000;14.29074500;2023-07-09T10:32:56;26.40;54.60
6556;DHT22;3311;48.32423000;14.29074500;2023-07-09T10:35:36;26.40;54.70
6556;DHT22;3311;48.32423000;14.29074500;2023-07-09T10:38:25;26.30;54.60
6556;DHT22;3311;48.32423000;14.29074500;2023-07-09T10:40:59;26.30;55.30
6556;DHT22;3311;48.32423000;14.29074500;2023-07-09T10:43:35;26.40;54.80
6556;DHT22;3311;48.32423000;14.29074500;2023-07-09T10:46:09;26.40;54.80
6556;DHT22;3311;48.32423000;14.29074500;2023-07-09T10:48:42;26.30;54.80
6556;DHT22;3311;48.32423000;14.29074500;2023-07-09T10:51:19;26.30;54.80
6556;DHT22;3311;48.32423000;14.29074500;2023-07-09T10:53:52;26.30;54.80
6556;DHT22;3311;48.32423000;14.29074500;2023-07-09T10:56:24;26.30;54.90
6556;DHT22;3311;48.32423000;14.29074500;2023-07-09T10:58:56;26.30;54.80
6556;DHT22;3311;48.32423000;14.29074500;2023-07-09T11:01:29;26.30;54.80
6556;DHT22;3311;48.32423000;14.29074500;2023-07-09T11:04:01;26.30;54.80
6556;DHT22;3311;48.32423000;14.29074500;2023-07-09T11:06:35;26.30;54.80
6556;DHT22;3311;48.32423000;14.29074500;2023-07-09T11:09:13;26.30;54.60
6556;DHT22;3311;48.32423000;14.29074500;2023-07-09T11:11:45;26.20;54.50
6556;DHT22;3311;48.32423000;14.29074500;2023-07-09T11:14:24;26.20;54.60
6556;DHT22;3311;48.32423000;14.29074500;2023-07-09T11:16:56;26.30;54.50
6556;DHT22;3311;48.32423000;14.29074500;2023-07-09T11:19:25;26.30;54.40
6556;DHT22;3311;48.32423000;14.29074500;2023-07-09T11:22:04;26.20;54.20
6556;DHT22;3311;48.32423000;14.29074500;2023-07-09T11:24:36;26.20;54.10
6556;DHT22;3311;48.32423000;14.29074500;2023-07-09T11:27:20;26.20;54.00
6556;DHT22;3311;48.32423000;14.29074500;2023-07-09T11:29:55;26.20;54.00
6556;DHT22;3311;48.32423000;14.29074500;2023-07-09T11:32:25;26.20;53.90
6556;DHT22;3311;48.32423000;14.29074500;2023-07-09T11:34:53;26.20;53.80
6556;DHT22;3311;48.32423000;14.29074500;2023-07-09T11:37:25;26.20;53.60
6556;DHT22;3311;48.32423000;14.29074500;2023-07-09T11:39:52;26.20;53.40
6556;DHT22;3311;48.32423000;14.29074500;2023-07-09T11:42:31;26.20;53.50
6556;DHT22;3311;48.32423000;14.29074500;2023-07-09T11:45:06;26.20;53.20
6556;DHT22;3311;48.32423000;14.29074500;2023-07-09T11:47:40;26.20;53.00
6556;DHT22;3311;48.32423000;14.29074500;2023-07-09T11:50:20;26.20;52.80
6556;DHT22;3311;48.32423000;14.29074500;2023-07-09T11:52:54;26.20;52.70
6556;DHT22;3311;48.32423000;14.29074500;2023-07-09T11:55:27;26.20;52.40
6556;DHT22;3311;48.32423000;14.29074500;2023-07-09T11:57:56;26.20;52.40
6556;DHT22;3311;48.32423000;14.29074500;2023-07-09T12:00:24;26.20;52.20
6556;DHT22;3311;48.32423000;14.29074500;2023-07-09T12:02:55;26.20;52.20
6556;DHT22;3311;48.32423000;14.29074500;2023-07-09T12:05:28;26.20;52.20
6556;DHT22;3311;48.32423000;14.29074500;2023-07-09T12:08:01;26.20;52.20
6556;DHT22;3311;48.32423000;14.29074500;2023-07-09T12:10:33;26.20;52.20
6556;DHT22;3311;48.32423000;14.29074500;2023-07-09T12:13:01;26.20;52.50
6556;DHT22;3311;48.32423000;14.29074500;2023-07-09T12:15:30;26.10;52.40
6556;DHT22;3311;48.32423000;14.29074500;2023-07-09T12:18:02;26.10;52.10
6556;DHT22;3311;48.32423000;14.29074500;2023-07-09T12:20:33;26.10;51.90
6556;DHT22;3311;48.32423000;14.29074500;2023-07-09T12:23:11;26.20;51.80
6556;DHT22;3311;48.32423000;14.29074500;2023-07-09T12:25:48;26.10;51.80
6556;DHT22;3311;48.32423000;14.29074500;2023-07-09T12:28:16;26.10;51.60
6556;DHT22;3311;48.32423000;14.29074500;2023-07-09T12:30:46;26.20;51.50
6556;DHT22;3311;48.32423000;14.29074500;2023-07-09T12:33:17;26.20;51.40
6556;DHT22;3311;48.32423000;14.29074500;2023-07-09T12:35:45;26.10;51.50
6556;DHT22;3311;48.32423000;14.29074500;2023-07-09T12:38:19;26.10;51.50
6556;DHT22;3311;48.32423000;14.29074500;2023-07-09T12:40:48;26.10;51.70
6556;DHT22;3311;48.32423000;14.29074500;2023-07-09T12:43:21;26.10;52.10
6556;DHT22;3311;48.32423000;14.29074500;2023-07-09T12:45:50;26.10;51.40
6556;DHT22;3311;48.32423000;14.29074500;2023-07-09T12:48:20;26.10;51.30
6556;DHT22;3311;48.32423000;14.29074500;2023-07-09T12:50:50;26.10;51.20
6556;DHT22;3311;48.32423000;14.29074500;2023-07-09T12:53:20;26.10;51.30
6556;DHT22;3311;48.32423000;14.29074500;2023-07-09T12:55:48;26.10;51.40
6556;DHT22;3311;48.32423000;14.29074500;2023-07-09T12:58:19;26.10;51.00
6556;DHT22;3311;48.32423000;14.29074500;2023-07-09T13:00:49;26.10;51.40
6556;DHT22;3311;48.32423000;14.29074500;2023-07-09T13:03:19;26.10;50.80
6556;DHT22;3311;48.32423000;14.29074500;2023-07-09T13:05:53;26.10;50.90
6556;DHT22;3311;48.32423000;14.29074500;2023-07-09T13:08:23;26.10;50.70
6556;DHT22;3311;48.32423000;14.29074500;2023-07-09T13:10:51;26.10;50.60
6556;DHT22;3311;48.32423000;14.29074500;2023-07-09T13:13:20;26.10;50.40
6556;DHT22;3311;48.32423000;14.29074500;2023-07-09T13:15:51;26.10;50.30
6556;DHT22;3311;48.32423000;14.29074500;2023-07-09T13:18:23;26.10;50.40
6556;DHT22;3311;48.32423000;14.29074500;2023-07-09T13:20:53;26.10;50.20
6556;DHT22;3311;48.32423000;14.29074500;2023-07-09T13:23:24;26.10;50.20
6556;DHT22;3311;48.32423000;14.29074500;2023-07-09T13:25:52;26.10;50.20
6556;DHT22;3311;48.32423000;14.29074500;2023-07-09T13:28:23;26.10;50.10
6556;DHT22;3311;48.32423000;14.29074500;2023-07-09T13:30:53;26.10;50.60
6556;DHT22;3311;48.32423000;14.29074500;2023-07-09T13:33:23;26.10;50.40
6556;DHT22;3311;48.32423000;14.29074500;2023-07-09T13:35:50;26.10;50.00
6556;DHT22;3311;48.32423000;14.29074500;2023-07-09T13:38:22;26.10;50.00
6556;DHT22;3311;48.32423000;14.29074500;2023-07-09T13:40:53;26.10;49.90
6556;DHT22;3311;48.32423000;14.29074500;2023-07-09T13:43:27;26.10;50.00
6556;DHT22;3311;48.32423000;14.29074500;2023-07-09T13:45:55;26.10;50.10
6556;DHT22;3311;48.32423000;14.29074500;2023-07-09T13:48:24;26.10;50.50
6556;DHT22;3311;48.32423000;14.29074500;2023-07-09T13:50:53;26.10;50.10
6556;DHT22;3311;48.32423000;14.29074500;2023-07-09T13:53:24;26.10;50.10